Time;durP1;ratioP1;P1;durP2;ratioP2;P2;SDS_P1;SDS_P2;PMS_P1;PMS_P2;Temp;Humidity;BMP_temperature;BMP_pressure;BME280_temperature;BME280_humidity;BME280_pressure;Samples;Min_cycle;Max_cycle;Signal;HPM_P1;HPM_P2
2022/12/25 00:01:34;;;;;;;;;;;;;;;;;;;;;
2022/12/25 00:04:59;;;;;;;8.65;4.80;;;5.30;99.90;;;;;;4913654;29;20108;-87
2022/12/25 00:11:54;;;;;;;;;;;;;;;;;;;;;
2022/12/25 00:27:09;;;;;;;;;;;;;;;;;;;;;
2022/12/25 00:30:41;;;;;;;;;;;;;;;;;;;;;
2022/12/25 00:33:52;;;;;;;;;;;;;;;;;;;;;
2022/12/25 00:37:36;;;;;;;;;;;;;;;;;;;;;
2022/12/25 00:40:51;;;;;;;6.55;3.22;;;4.80;99.90;;;;;;4895638;29;20052;-88
2022/12/25 00:44:15;;;;;;;9.40;3.65;;;4.60;99.90;;;;;;4896083;29;20548;-88
2022/12/25 00:47:57;;;;;;;7.07;3.67;;;5.50;99.90;;;;;;4892404;29;20079;-86
2022/12/25 00:58:52;;;;;;;8.05;2.72;;;4.50;99.90;;;;;;4869113;29;20053;-87
2022/12/25 01:02:34;;;;;;;9.32;3.08;;;5.40;99.90;;;;;;4900561;29;20355;-87
2022/12/25 01:06:11;;;;;;;;;;;;;;;;;;;;;
2022/12/25 01:13:08;;;;;;;9.40;2.78;;;4.60;99.90;;;;;;4879706;29;20475;-88
2022/12/25 01:16:15;;;;;;;7.15;2.58;;;5.50;99.90;;;;;;4880526;29;20064;-89
2022/12/25 01:19:44;;;;;;;;;;;;;;;;;;;;;
2022/12/25 01:22:52;;;;;;;6.30;3.10;;;4.70;99.90;;;;;;4843156;29;20151;-87
2022/12/25 01:26:08;;;;;;;11.20;3.60;;;5.50;99.90;;;;;;4843158;29;20064;-88
2022/12/25 01:29:16;;;;;;;;;;;;;;;;;;;;;
2022/12/25 01:32:30;;;;;;;9.65;2.90;;;4.70;99.90;;;;;;4874043;29;20083;-86
2022/12/25 01:35:58;;;;;;;7.13;3.30;;;4.20;99.90;;;;;;4871279;29;20585;-85
2022/12/25 01:39:04;;;;;;;7.97;3.65;;;4.80;99.90;;;;;;4828234;29;20049;-87
2022/12/25 01:42:28;;;;;;;;;;;;;;;;;;;;;
2022/12/25 01:46:09;;;;;;;;;;;;;;;;;;;;;
2022/12/25 01:49:28;;;;;;;13.45;5.90;;;5.10;99.90;;;;;;4956907;28;20199;-87
2022/12/25 01:52:27;;;;;;;17.85;5.97;;;5.90;99.90;;;;;;4974927;28;20047;-87
2022/12/25 01:55:41;;;;;;;;;;;;;;;;;;;;;
2022/12/25 01:58:44;;;;;;;21.08;6.68;;;5.30;99.90;;;;;;4974828;28;20051;-90
2022/12/25 02:01:52;;;;;;;20.38;6.28;;;5.50;99.90;;;;;;4958183;28;20083;-88
2022/12/25 02:05:18;;;;;;;;;;;;;;;;;;;;;
2022/12/25 02:08:32;;;;;;;13.63;5.63;;;5.70;99.90;;;;;;5014094;28;20142;-90
2022/12/25 02:11:58;;;;;;;16.00;4.80;;;6.20;99.90;;;;;;5012983;28;20442;-90
2022/12/25 02:14:43;;;;;;;12.73;5.10;;;5.80;99.90;;;;;;5014858;28;20193;-88
2022/12/25 02:18:02;;;;;;;15.98;5.43;;;5.90;99.90;;;;;;5013691;28;20081;-89
2022/12/25 02:21:17;;;;;;;11.35;4.15;;;6.10;99.90;;;;;;5013483;28;20109;-88
2022/12/25 02:24:32;;;;;;;12.60;4.43;;;5.60;99.90;;;;;;5012506;28;20069;-86
2022/12/25 02:27:44;;;;;;;;;;;6.00;99.90;;;;;;5027546;28;20553;-87
2022/12/25 02:31:12;;;;;;;13.98;4.97;;;6.00;99.90;;;;;;5026464;28;20001;-86
2022/12/25 02:34:14;;;;;;;13.57;5.60;;;6.00;99.90;;;;;;5022075;28;20087;-87
2022/12/25 02:37:21;;;;;;;22.42;9.45;;;6.10;99.90;;;;;;5037699;28;20445;-88
2022/12/25 02:40:30;;;;;;;14.70;5.80;;;6.20;99.90;;;;;;5035828;28;20099;-86
2022/12/25 03:08:19;;;;;;;;;;;;;;;;;;;;;
2022/12/25 03:11:40;;;;;;;14.45;5.63;;;6.50;99.90;;;;;;5022741;28;20064;-87
2022/12/25 03:18:34;;;;;;;11.07;4.75;;;6.60;99.90;;;;;;5034890;28;20402;-87
2022/12/25 03:28:58;;;;;;;16.92;7.35;;;6.80;99.90;;;;;;5053753;28;20087;-87
2022/12/25 03:32:36;;;;;;;14.27;6.72;;;6.70;99.90;;;;;;5054024;28;20045;-89
2022/12/25 03:36:12;;;;;;;15.30;6.53;;;6.80;99.90;;;;;;5053874;28;20048;-87
2022/12/25 04:38:24;;;;;;;9.85;4.78;;;7.20;99.90;;;;;;5013078;28;20095;-86
2022/12/25 04:41:47;;;;;;;11.70;5.72;;;7.10;99.90;;;;;;5012939;28;20053;-87
2022/12/25 04:44:58;;;;;;;;;;;;;;;;;;;;;
2022/12/25 04:48:22;;;;;;;;;;;;;;;;;;;;;
2022/12/25 04:51:48;;;;;;;22.65;8.52;;;7.90;99.90;;;;;;5014764;28;20077;-86
2022/12/25 04:55:10;;;;;;;27.00;10.10;;;7.30;99.90;;;;;;5013158;28;20068;-86
2022/12/25 04:58:25;;;;;;;24.05;9.13;;;7.30;99.90;;;;;;5010550;28;20050;-86
2022/12/25 05:01:40;;;;;;;;;;;;;;;;;;;;;
2022/12/25 05:04:30;;;;;;;17.45;7.55;;;7.40;99.90;;;;;;4994512;28;20128;-89
2022/12/25 05:08:06;;;;;;;;;;;;;;;;;;;;;
2022/12/25 05:11:02;;;;;;;23.52;7.80;;;7.40;99.90;;;;;;5010976;28;20061;-86
2022/12/25 05:14:26;;;;;;;25.65;8.90;;;7.40;99.90;;;;;;5012901;28;20053;-87
2022/12/25 05:17:43;;;;;;;;;;;;;;;;;;;;;
2022/12/25 05:21:04;;;;;;;19.08;8.65;;;7.50;99.90;;;;;;4971773;28;20057;-86
2022/12/25 05:24:16;;;;;;;;;;;;;;;;;;;;;
2022/12/25 05:27:46;;;;;;;;;;;;;;;;;;;;;
2022/12/25 05:31:06;;;;;;;;;;;;;;;;;;;;;
2022/12/25 05:34:24;;;;;;;19.58;8.23;;;8.40;99.90;;;;;;4971371;28;20092;-87
2022/12/25 05:38:04;;;;;;;;;;;;;;;;;;;;;
2022/12/25 05:41:21;;;;;;;26.85;8.55;;;7.70;99.90;;;;;;4974868;28;20047;-87
2022/12/25 05:44:42;;;;;;;23.80;9.23;;;7.70;99.90;;;;;;4975234;28;20050;-87
2022/12/25 05:47:54;;;;;;;;;;;;;;;;;;;;;
2022/12/25 05:51:09;;;;;;;21.30;8.38;;;7.80;99.90;;;;;;4997024;28;20129;-87
2022/12/25 05:54:28;;;;;;;22.25;8.57;;;7.80;99.90;;;;;;4995095;28;20198;-87
2022/12/25 05:58:16;;;;;;;;;;;;;;;;;;;;;
2022/12/25 06:01:52;;;;;;;;;;;;;;;;;;;;;
2022/12/25 06:05:16;;;;;;;25.95;9.70;;;7.80;99.90;;;;;;5015401;28;20045;-87
2022/12/25 06:08:40;;;;;;;;;;;;;;;;;;;;;
2022/12/25 06:12:12;;;;;;;20.48;8.90;;;7.90;99.90;;;;;;5015098;28;20046;-87
2022/12/25 06:15:36;;;;;;;;;;;;;;;;;;;;;
2022/12/25 06:19:08;;;;;;;;;;;;;;;;;;;;;
2022/12/25 06:22:32;;;;;;;27.88;11.05;;;7.90;99.90;;;;;;5015149;28;20458;-87
2022/12/25 06:25:44;;;;;;;;;;;;;;;;;;;;;
2022/12/25 06:29:16;;;;;;;21.10;8.25;;;7.70;99.90;;;;;;5015391;28;20046;-89
2022/12/25 06:32:46;;;;;;;;;;;;;;;;;;;;;
2022/12/25 06:35:39;;;;;;;20.27;9.57;;;7.80;99.90;;;;;;5015130;28;20081;-90
2022/12/25 06:38:58;;;;;;;15.90;7.25;;;7.90;99.90;;;;;;4939272;29;20055;-90
2022/12/25 06:42:15;;;;;;;19.60;8.68;;;7.90;99.90;;;;;;4954917;28;20058;-87
2022/12/25 06:45:20;;;;;;;;;;;;;;;;;;;;;
2022/12/25 06:48:48;;;;;;;;;;;;;;;;;;;;;
2022/12/25 06:56:34;;;;;;;16.48;7.03;;;7.90;99.90;;;;;;4990901;28;20056;-89
2022/12/25 06:59:28;;;;;;;23.27;8.85;;;7.80;99.90;;;;;;4993063;28;20050;-88
2022/12/25 07:02:44;;;;;;;;;;;;;;;;;;;;;
2022/12/25 07:05:54;;;;;;;16.50;6.88;;;8.30;99.90;;;;;;4992646;28;20054;-89
2022/12/25 07:09:16;;;;;;;16.83;6.55;;;8.30;99.90;;;;;;5002604;28;20049;-90
2022/12/25 07:12:36;;;;;;;15.57;7.20;;;7.90;99.90;;;;;;5012279;28;20057;-91
2022/12/25 07:15:54;;;;;;;;;;;;;;;;;;;;;
2022/12/25 07:19:13;;;;;;;14.57;6.93;;;7.90;99.90;;;;;;5012068;28;20049;-89
2022/12/25 07:22:30;;;;;;;15.07;6.13;;;8.30;99.90;;;;;;4995547;28;20072;-89
2022/12/25 07:25:46;;;;;;;;;;;;;;;;;;;;;
2022/12/25 07:28:41;;;;;;;13.00;5.60;;;8.60;99.90;;;;;;5006838;28;20176;-89
2022/12/25 07:31:46;;;;;;;12.15;5.78;;;7.90;99.90;;;;;;4993845;28;20068;-88
2022/12/25 07:35:10;;;;;;;18.00;7.38;;;8.10;99.90;;;;;;5011919;28;20192;-89
2022/12/25 07:38:32;;;;;;;;;;;;;;;;;;;;;
2022/12/25 07:42:12;;;;;;;20.30;8.48;;;8.50;99.90;;;;;;4992475;28;20042;-88
2022/12/25 07:45:32;;;;;;;13.77;7.10;;;8.50;99.90;;;;;;5031867;28;20041;-90
2022/12/25 07:49:00;;;;;;;13.05;5.93;;;8.00;99.90;;;;;;5033559;28;20116;-90
2022/12/25 07:52:20;;;;;;;;;;;;;;;;;;;;;
2022/12/25 07:55:35;;;;;;;16.20;5.63;;;8.00;99.90;;;;;;5032861;28;20050;-88
2022/12/25 07:58:14;;;;;;;12.77;6.05;;;8.00;99.90;;;;;;5032371;28;20045;-89
2022/12/25 08:01:13;;;;;;;13.00;4.55;;;8.60;99.90;;;;;;5014405;28;20038;-88
2022/12/25 08:04:26;;;;;;;9.60;5.03;;;8.80;99.90;;;;;;5015511;28;20037;-88
2022/12/25 08:11:08;;;;;;;;;;;8.00;99.90;;;;;;4893094;29;20083;-89
2022/12/25 08:13:45;;;;;;;11.40;4.32;;;7.70;99.90;;;;;;4883521;29;19971;-89
2022/12/25 08:16:29;;;;;;;;;;;;;;;;;;;;;
2022/12/25 08:19:11;;;;;;;10.32;4.53;;;8.10;99.90;;;;;;4881622;29;20403;-90
2022/12/25 08:21:50;;;;;;;11.20;5.75;;;8.10;99.90;;;;;;4896627;29;20165;-89
2022/12/25 08:24:32;;;;;;;14.23;5.53;;;8.10;99.90;;;;;;4881206;29;20056;-89
2022/12/25 08:27:49;;;;;;;12.40;6.13;;;8.10;99.90;;;;;;4880493;29;20119;-89
2022/12/25 08:30:42;;;;;;;;;;;;;;;;;;;;;
2022/12/25 08:33:32;;;;;;;15.82;6.35;;;8.10;99.90;;;;;;4880051;29;20104;-88
2022/12/25 08:36:28;;;;;;;16.45;6.90;;;8.00;99.90;;;;;;4862149;29;20148;-87
2022/12/25 08:39:40;;;;;;;;;;;;;;;;;;;;;
2022/12/25 08:42:38;;;;;;;14.40;6.47;;;8.20;99.90;;;;;;4874654;29;20101;-88
2022/12/25 08:45:42;;;;;;;;;;;;;;;;;;;;;
2022/12/25 08:49:03;;;;;;;;;;;;;;;;;;;;;
2022/12/25 08:51:48;;;;;;;13.75;6.70;;;8.80;99.90;;;;;;5014476;28;20053;-90
2022/12/25 08:54:30;;;;;;;11.13;5.82;;;8.30;99.90;;;;;;4998354;28;20128;-89
2022/12/25 08:57:32;;;;;;;11.80;6.40;;;8.20;99.90;;;;;;4997019;28;20054;-88
2022/12/25 09:01:00;;;;;;;12.45;6.30;;;8.40;99.90;;;;;;5032838;28;20049;-87
2022/12/25 09:03:49;;;;;;;9.07;4.78;;;8.80;99.90;;;;;;5014930;28;20088;-87
2022/12/25 09:07:05;;;;;;;;;;;;;;;;;;;;;
2022/12/25 09:10:26;;;;;;;12.20;5.35;;;7.60;99.90;;;;;;5011803;28;20117;-88
2022/12/25 09:13:26;;;;;;;11.18;4.65;;;8.20;99.90;;;;;;5014009;28;20088;-89
2022/12/25 09:16:38;;;;;;;;;;;;;;;;;;;;;
2022/12/25 09:19:56;;;;;;;13.18;4.90;;;7.50;99.90;;;;;;5017194;28;20045;-88
2022/12/25 09:22:54;;;;;;;;;;;8.30;99.90;;;;;;4985015;28;20050;-88
2022/12/25 09:25:52;;;;;;;10.18;6.03;;;8.40;99.90;;;;;;4977483;28;20480;-86
2022/12/25 09:28:53;;;;;;;11.13;6.07;;;8.20;99.90;;;;;;4995128;28;20043;-87
2022/12/25 09:32:07;;;;;;;;;;;;;;;;;;;;;
2022/12/25 09:35:16;;;;;;;;;;;;;;;;;;;;;
2022/12/25 09:45:59;;;;;;;7.85;4.43;;;9.00;99.90;;;;;;4956696;29;20078;-88
2022/12/25 09:48:59;;;;;;;11.67;4.60;;;8.30;99.90;;;;;;4954970;29;20122;-87
2022/12/25 09:51:56;;;;;;;;;;;;;;;;;;;;;
2022/12/25 09:55:17;;;;;;;;;;;;;;;;;;;;;
2022/12/25 09:58:27;;;;;;;;;;;;;;;;;;;;;
2022/12/25 10:02:27;;;;;;;7.43;3.45;;;8.40;99.90;;;;;;4973334;28;20054;-89
2022/12/25 10:06:11;;;;;;;;;;;;;;;;;;;;;
2022/12/25 10:09:21;;;;;;;8.70;4.28;;;8.40;99.90;;;;;;4798871;29;20517;-87
2022/12/25 10:12:26;;;;;;;7.25;4.60;;;8.40;99.90;;;;;;4805491;29;20218;-87
2022/12/25 10:19:08;;;;;;;6.78;3.55;;;8.40;99.90;;;;;;4806118;29;20081;-87
2022/12/25 10:22:05;;;;;;;5.47;3.60;;;8.40;99.90;;;;;;4806200;29;20124;-88
2022/12/25 10:28:24;;;;;;;6.53;3.60;;;8.70;99.90;;;;;;4839348;29;20503;-88
2022/12/25 10:35:14;;;;;;;;;;;;;;;;;;;;;
2022/12/25 10:38:21;;;;;;;10.50;4.82;;;8.40;99.90;;;;;;4807254;29;20459;-90
2022/12/25 10:42:10;;;;;;;6.63;3.50;;;8.50;99.90;;;;;;4825972;29;20091;-87
2022/12/25 10:45:23;;;;;;;5.40;3.03;;;8.40;99.90;;;;;;4863040;29;20620;-88
2022/12/25 10:48:42;;;;;;;;;;;;;;;;;;;;;
2022/12/25 10:51:57;;;;;;;7.82;3.53;;;8.50;99.90;;;;;;4897998;29;20058;-92
2022/12/25 10:55:04;;;;;;;;;;;;;;;;;;;;;
2022/12/25 10:58:15;;;;;;;5.30;2.90;;;8.50;99.90;;;;;;4926422;29;20043;-86
2022/12/25 11:01:09;;;;;;;10.25;4.30;;;8.50;99.90;;;;;;4908918;29;20141;-86
2022/12/25 11:04:05;;;;;;;9.52;4.78;;;8.60;99.90;;;;;;4939177;28;20070;-85
2022/12/25 11:07:53;;;;;;;6.45;3.50;;;8.60;99.90;;;;;;4974456;28;20432;-87
2022/12/25 11:11:16;;;;;;;9.02;4.03;;;8.50;99.90;;;;;;4973168;28;20047;-88
2022/12/25 11:14:04;;;;;;;7.35;3.40;;;8.60;99.90;;;;;;4955577;28;20642;-90
2022/12/25 11:17:09;;;;;;;5.47;3.25;;;8.60;99.90;;;;;;4957020;28;20499;-88
2022/12/25 11:20:32;;;;;;;;;;;;;;;;;;;;;
2022/12/25 11:23:09;;;;;;;5.95;2.72;;;8.60;99.90;;;;;;4918552;29;20492;-88
2022/12/25 11:25:39;;;;;;;4.45;2.72;;;8.60;99.90;;;;;;4934524;29;20103;-89
2022/12/25 11:28:12;;;;;;;4.68;2.65;;;8.70;99.90;;;;;;4918414;29;20071;-87
2022/12/25 11:30:52;;;;;;;3.17;1.60;;;8.70;99.90;;;;;;4902892;29;20067;-88
2022/12/25 11:33:26;;;;;;;4.70;1.88;;;8.40;99.90;;;;;;4937995;29;20527;-89
2022/12/25 11:36:46;;;;;;;3.72;2.08;;;9.10;99.90;;;;;;5151995;27;19918;-87
2022/12/25 11:39:40;;;;;;;5.40;2.25;;;8.80;99.90;;;;;;5100027;28;20044;-90
2022/12/25 11:42:46;;;;;;;4.57;1.58;;;8.80;99.90;;;;;;5092949;28;20097;-88
2022/12/25 11:45:29;;;;;;;5.57;2.22;;;8.80;99.90;;;;;;5012152;28;20057;-88
2022/12/25 11:48:23;;;;;;;3.70;2.35;;;8.80;99.90;;;;;;5030693;28;20076;-89
2022/12/25 11:51:22;;;;;;;4.38;2.30;;;9.30;99.90;;;;;;5046432;28;20109;-90
2022/12/25 11:54:18;;;;;;;4.43;1.77;;;8.90;99.90;;;;;;5031931;28;20101;-86
2022/12/25 11:56:54;;;;;;;4.18;1.58;;;8.90;99.90;;;;;;5047975;28;20037;-88
2022/12/25 11:59:48;;;;;;;;;;;;;;;;;;;;;
2022/12/25 12:02:57;;;;;;;6.68;1.52;;;8.90;99.90;;;;;;5030938;28;20446;-89
2022/12/25 12:06:14;;;;;;;3.95;1.65;;;8.90;99.90;;;;;;5030395;28;20564;-88
2022/12/25 12:09:27;;;;;;;5.97;1.75;;;8.90;99.90;;;;;;4958439;28;20055;-87
2022/12/25 12:12:07;;;;;;;3.08;1.30;;;8.90;99.90;;;;;;4952584;28;20058;-90
2022/12/25 12:18:56;;;;;;;2.95;1.20;;;9.00;99.90;;;;;;4963987;28;20055;-88
2022/12/25 12:29:05;;;;;;;3.00;1.30;;;8.90;99.90;;;;;;4950217;28;20043;-88
2022/12/25 12:32:17;;;;;;;3.65;1.60;;;8.70;99.90;;;;;;4949769;28;20057;-89
2022/12/25 12:35:28;;;;;;;4.13;1.70;;;8.80;99.90;;;;;;4932908;29;20452;-89
2022/12/25 12:38:32;;;;;;;;;;;;;;;;;;;;;
2022/12/25 12:41:21;;;;;;;3.45;1.10;;;8.90;99.90;;;;;;5004514;28;20089;-88
2022/12/25 12:44:35;;;;;;;2.55;1.20;;;8.90;99.90;;;;;;5051804;28;20052;-89
2022/12/25 12:47:46;;;;;;;;;;;;;;;;;;;;;
2022/12/25 12:51:17;;;;;;;1.30;0.80;;;8.90;99.90;;;;;;5054754;28;20057;-90
2022/12/25 12:54:19;;;;;;;1.80;0.77;;;8.90;99.90;;;;;;5053963;28;20094;-88
2022/12/25 12:57:46;;;;;;;2.08;0.90;;;8.90;99.90;;;;;;5055911;28;20496;-88
2022/12/25 13:01:09;;;;;;;2.03;0.90;;;8.70;99.90;;;;;;5055927;28;20052;-88
2022/12/25 13:04:16;;;;;;;2.22;1.08;;;8.90;99.90;;;;;;5054305;28;20342;-89
2022/12/25 13:07:29;;;;;;;2.60;1.20;;;9.30;99.90;;;;;;5054457;28;20053;-88
2022/12/25 13:10:26;;;;;;;1.67;0.95;;;8.90;99.90;;;;;;5054319;28;20412;-87
2022/12/25 13:13:46;;;;;;;3.53;1.15;;;8.90;99.90;;;;;;5054208;28;20059;-89
2022/12/25 13:17:04;;;;;;;;;;;;;;;;;;;;;
2022/12/25 13:20:36;;;;;;;1.88;0.85;;;8.90;99.90;;;;;;4994126;28;20054;-87
2022/12/25 13:24:06;;;;;;;1.10;0.70;;;8.90;99.90;;;;;;4983550;28;20099;-89
2022/12/25 13:27:18;;;;;;;2.08;1.27;;;9.00;99.90;;;;;;4979108;28;20133;-87
2022/12/25 13:30:20;;;;;;;2.22;1.35;;;9.60;99.90;;;;;;4994167;28;20055;-88
2022/12/25 13:33:04;;;;;;;2.50;1.10;;;9.00;99.90;;;;;;4977259;28;20492;-87
2022/12/25 13:36:14;;;;;;;;;;;;;;;;;;;;;
2022/12/25 13:39:23;;;;;;;3.08;1.30;;;9.00;99.90;;;;;;4967423;28;20056;-88
2022/12/25 13:42:20;;;;;;;4.03;1.65;;;9.50;99.90;;;;;;4994292;28;20140;-89
2022/12/25 13:45:24;;;;;;;2.88;1.20;;;9.00;99.90;;;;;;4996581;28;20169;-89
2022/12/25 13:48:24;;;;;;;2.80;1.38;;;9.10;99.90;;;;;;5010101;28;20049;-89
2022/12/25 13:51:22;;;;;;;4.68;1.20;;;9.00;99.90;;;;;;5000681;28;20053;-89
2022/12/25 13:54:25;;;;;;;1.60;1.00;;;9.00;99.90;;;;;;4977318;28;20054;-85
2022/12/25 13:57:25;;;;;;;2.13;1.30;;;9.10;99.90;;;;;;4995069;28;20053;-88
2022/12/25 14:00:26;;;;;;;1.73;1.00;;;9.00;99.90;;;;;;4995957;28;20052;-87
2022/12/25 14:03:17;;;;;;;1.90;0.95;;;9.00;99.90;;;;;;5012924;28;20485;-88
2022/12/25 14:06:19;;;;;;;2.78;1.02;;;9.00;99.90;;;;;;4993239;28;20046;-86
2022/12/25 14:08:58;;;;;;;2.10;1.20;;;9.00;99.90;;;;;;4935648;29;20059;-88
2022/12/25 14:11:30;;;;;;;2.50;0.98;;;9.00;99.90;;;;;;4919191;29;20048;-88
2022/12/25 14:14:02;;;;;;;3.28;0.90;;;9.00;99.90;;;;;;4933224;29;20056;-88
2022/12/25 14:16:43;;;;;;;2.28;1.10;;;8.80;99.90;;;;;;4935033;29;20184;-88
2022/12/25 14:19:31;;;;;;;2.13;1.25;;;9.00;99.90;;;;;;4919244;29;20062;-86
2022/12/25 14:22:01;;;;;;;2.38;1.25;;;9.00;99.90;;;;;;4890521;29;20039;-86
2022/12/25 14:24:37;;;;;;;2.03;1.20;;;9.00;99.90;;;;;;4935312;29;20047;-89
2022/12/25 14:27:14;;;;;;;4.60;1.38;;;9.00;99.90;;;;;;4931486;29;20310;-87
2022/12/25 14:29:50;;;;;;;1.77;0.95;;;9.80;99.90;;;;;;4918367;29;20051;-88
2022/12/25 14:32:22;;;;;;;1.83;1.27;;;9.00;99.90;;;;;;4918140;29;20062;-87
2022/12/25 14:35:15;;;;;;;1.90;0.90;;;9.60;99.90;;;;;;4923417;29;20142;-87
2022/12/25 14:38:02;;;;;;;1.98;1.05;;;9.00;99.90;;;;;;4941906;29;20103;-86
2022/12/25 14:40:34;;;;;;;2.17;1.00;;;8.30;99.90;;;;;;4930673;29;20047;-86
2022/12/25 14:43:19;;;;;;;2.75;1.58;;;9.00;99.90;;;;;;4956833;28;20047;-87
2022/12/25 14:45:57;;;;;;;3.55;2.15;;;8.90;99.90;;;;;;5060651;28;20138;-87
2022/12/25 14:48:37;;;;;;;4.30;2.20;;;9.00;99.90;;;;;;5095533;28;20121;-87
2022/12/25 14:51:14;;;;;;;4.97;2.65;;;8.90;99.90;;;;;;5096018;28;20043;-86
2022/12/25 14:53:53;;;;;;;6.05;3.03;;;8.70;99.90;;;;;;5096227;28;20050;-86
2022/12/25 14:56:22;;;;;;;7.68;3.70;;;9.00;99.90;;;;;;5095501;28;20499;-86
2022/12/25 14:59:17;;;;;;;5.57;3.20;;;8.60;99.90;;;;;;5095860;28;20088;-87
2022/12/25 15:02:07;;;;;;;;;;;;;;;;;;;;;
2022/12/25 15:05:56;;;;;;;;;;;;;;;;;;;;;
2022/12/25 15:09:19;;;;;;;11.88;6.47;;;8.90;99.90;;;;;;5018326;28;20045;-88
2022/12/25 15:11:57;;;;;;;8.57;4.90;;;8.90;99.90;;;;;;5013921;28;20424;-88
2022/12/25 15:14:38;;;;;;;8.00;4.90;;;8.90;99.90;;;;;;5014449;28;20422;-87
2022/12/25 15:17:41;;;;;;;8.65;5.20;;;9.20;99.90;;;;;;5031222;28;20045;-89
2022/12/25 15:23:58;;;;;;;11.05;6.07;;;8.90;99.90;;;;;;5025721;28;20054;-88
2022/12/25 15:27:11;;;;;;;9.13;5.70;;;8.90;99.90;;;;;;5030514;28;20603;-88
2022/12/25 15:30:29;;;;;;;9.75;5.82;;;8.90;99.90;;;;;;5010825;28;20419;-89
2022/12/25 15:33:21;;;;;;;9.70;5.47;;;8.90;99.90;;;;;;4929838;29;20047;-88
2022/12/25 15:36:11;;;;;;;9.52;5.25;;;8.90;99.90;;;;;;4894623;29;20056;-87
2022/12/25 15:38:47;;;;;;;10.93;5.93;;;8.90;99.90;;;;;;4883363;29;20119;-89
2022/12/25 15:44:24;;;;;;;;;;;8.70;99.90;;;;;;4911071;29;20142;-89
2022/12/25 15:46:50;;;;;;;8.32;5.03;;;8.50;99.90;;;;;;4917539;29;19931;-86
2022/12/25 15:49:22;;;;;;;9.75;5.50;;;8.80;99.90;;;;;;4917987;29;20067;-86
2022/12/25 15:51:48;;;;;;;7.90;4.90;;;8.90;99.90;;;;;;4932833;29;20143;-89
2022/12/25 15:55:18;;;;;;;11.02;5.80;;;8.80;99.90;;;;;;4916497;29;20052;-86
2022/12/25 15:58:00;;;;;;;11.32;5.95;;;8.80;99.90;;;;;;4903502;29;20047;-90
2022/12/25 16:00:36;;;;;;;8.98;5.32;;;8.80;99.90;;;;;;4917438;29;20058;-90
2022/12/25 16:03:24;;;;;;;8.93;5.45;;;8.80;99.90;;;;;;4932935;29;20513;-87
2022/12/25 16:06:02;;;;;;;10.15;5.80;;;8.70;99.90;;;;;;4902363;29;20066;-89
2022/12/25 16:15:46;;;;;;;8.93;4.95;;;8.50;99.90;;;;;;5071078;28;20052;-89
2022/12/25 16:18:29;;;;;;;10.23;5.82;;;8.70;99.90;;;;;;5066853;28;20136;-90
2022/12/25 16:21:26;;;;;;;10.00;6.28;;;8.70;99.90;;;;;;5058433;28;20174;-89
2022/12/25 16:27:49;;;;;;;10.73;6.28;;;8.70;99.90;;;;;;5078803;28;20452;-89
2022/12/25 16:30:21;;;;;;;9.68;5.85;;;8.80;99.90;;;;;;5036651;28;20045;-87
2022/12/25 16:33:17;;;;;;;8.77;5.28;;;8.70;99.90;;;;;;5054203;28;20060;-86
2022/12/25 16:35:47;;;;;;;9.75;5.57;;;8.90;99.90;;;;;;5069512;28;20547;-88
2022/12/25 16:46:14;;;;;;;7.97;4.78;;;8.70;99.90;;;;;;5072355;28;20160;-87
2022/12/25 16:48:49;;;;;;;9.48;5.68;;;8.60;99.90;;;;;;5073765;28;20056;-87
2022/12/25 16:51:23;;;;;;;10.23;5.63;;;8.70;99.90;;;;;;5057226;28;20056;-89
2022/12/25 16:53:59;;;;;;;9.38;5.63;;;9.00;99.90;;;;;;5073016;28;20079;-86
2022/12/25 16:56:27;;;;;;;8.10;5.25;;;8.60;99.90;;;;;;5056585;28;20535;-90
2022/12/25 16:58:55;;;;;;;9.40;5.38;;;8.70;99.90;;;;;;5056729;28;20055;-87
2022/12/25 17:01:58;;;;;;;9.07;5.60;;;8.60;99.90;;;;;;5056782;28;20048;-86
2022/12/25 17:04:29;;;;;;;10.50;5.22;;;8.50;99.90;;;;;;5056792;28;20137;-90
2022/12/25 17:08:04;;;;;;;;;;;;;;;;;;;;;
2022/12/25 17:10:28;;;;;;;8.52;5.43;;;8.50;99.90;;;;;;5053869;28;20052;-90
2022/12/25 17:13:04;;;;;;;8.35;5.38;;;8.60;99.90;;;;;;5068578;28;20115;-88
2022/12/25 17:15:49;;;;;;;9.18;5.38;;;8.60;99.90;;;;;;5094519;28;20369;-91
2022/12/25 17:18:30;;;;;;;9.63;6.45;;;8.60;99.90;;;;;;5078425;28;20082;-88
2022/12/25 17:21:39;;;;;;;9.00;5.43;;;8.60;99.90;;;;;;5111460;28;20055;-90
2022/12/25 17:25:26;;;;;;;9.70;6.22;;;8.50;99.90;;;;;;5067692;28;20059;-88
2022/12/25 17:28:09;;;;;;;8.50;5.40;;;8.50;99.90;;;;;;5012588;28;20511;-90
2022/12/25 17:31:21;;;;;;;;;;;;;;;;;;;;;
2022/12/25 17:34:52;;;;;;;;;;;;;;;;;;;;;
2022/12/25 17:37:58;;;;;;;;;;;;;;;;;;;;;
2022/12/25 17:41:24;;;;;;;;;;;;;;;;;;;;;
2022/12/25 17:44:40;;;;;;;8.38;4.55;;;8.80;99.90;;;;;;4973429;28;20156;-88
2022/12/25 17:47:56;;;;;;;;;;;;;;;;;;;;;
2022/12/25 17:51:14;;;;;;;8.98;4.97;;;8.20;99.90;;;;;;4974563;28;20057;-86
2022/12/25 18:01:18;;;;;;;7.35;4.53;;;8.40;99.90;;;;;;5025738;28;20533;-91
2022/12/25 18:04:50;;;;;;;;;;;;;;;;;;;;;
2022/12/25 18:08:24;;;;;;;9.40;4.88;;;8.50;99.90;;;;;;5058852;28;20055;-88
2022/12/25 18:15:34;;;;;;;;;;;;;;;;;;;;;
2022/12/25 18:18:40;;;;;;;7.18;4.60;;;8.00;99.90;;;;;;4899254;29;20459;-91
2022/12/25 18:22:00;;;;;;;7.55;4.57;;;8.30;99.90;;;;;;4916154;29;20127;-89
2022/12/25 18:25:24;;;;;;;;;;;;;;;;;;;;;
2022/12/25 18:28:05;;;;;;;6.63;4.13;;;8.20;99.90;;;;;;4913995;29;20427;-89
2022/12/25 18:31:14;;;;;;;5.78;3.67;;;8.20;99.90;;;;;;4908348;29;20544;-88
2022/12/25 18:34:37;;;;;;;7.53;4.85;;;8.80;99.90;;;;;;4970039;22;20418;-92
2022/12/25 18:38:16;;;;;;;9.65;5.20;;;8.20;99.90;;;;;;5050389;28;20118;-92
2022/12/25 18:45:37;;;;;;;8.88;5.60;;;8.10;99.90;;;;;;4966767;22;20275;-89
2022/12/25 18:48:41;;;;;;;9.52;6.30;;;8.20;99.90;;;;;;5007212;28;20058;-89
2022/12/25 18:55:53;;;;;;;8.60;4.80;;;8.10;99.90;;;;;;5156024;22;20900;-91
2022/12/25 18:59:46;;;;;;;;;;;;;;;;;;;;;
2022/12/25 19:02:50;;;;;;;;;;;;;;;;;;;;;
2022/12/25 19:06:10;;;;;;;8.18;5.28;;;8.10;99.90;;;;;;4972676;28;20065;-88
2022/12/25 19:09:40;;;;;;;11.05;6.10;;;8.40;99.90;;;;;;4977879;28;20527;-88
2022/12/25 19:12:41;;;;;;;9.30;6.00;;;8.10;99.90;;;;;;4953253;28;20062;-86
2022/12/25 19:15:31;;;;;;;;;;;7.30;99.90;;;;;;4953161;29;20055;-87
2022/12/25 19:19:02;;;;;;;;;;;;;;;;;;;;;
2022/12/25 19:22:38;;;;;;;9.15;5.72;;;8.00;99.90;;;;;;4953069;29;20451;-90
2022/12/25 19:25:56;;;;;;;7.60;4.40;;;8.70;99.90;;;;;;4952499;28;20535;-88
2022/12/25 19:31:35;;;;;;;7.30;4.50;;;7.90;99.90;;;;;;5141907;23;20430;-91
2022/12/25 19:37:03;;;;;;;8.48;5.30;;;7.90;99.90;;;;;;5093951;22;20620;-89
2022/12/25 19:39:52;;;;;;;10.07;5.90;;;7.90;99.90;;;;;;5059193;28;20052;-89
2022/12/25 19:42:23;;;;;;;10.20;5.65;;;7.70;99.90;;;;;;5074910;28;20132;-86
2022/12/25 19:45:30;;;;;;;8.07;5.25;;;8.00;99.90;;;;;;5090778;28;20100;-90
2022/12/25 19:48:13;;;;;;;11.35;6.75;;;7.90;99.90;;;;;;4993744;28;20609;-90
2022/12/25 20:01:30;;;;;;;11.18;5.55;;;7.90;99.90;;;;;;4972141;28;20054;-87
2022/12/25 20:04:29;;;;;;;8.63;5.43;;;7.90;99.90;;;;;;4959622;28;20058;-90
2022/12/25 20:07:06;;;;;;;8.48;5.50;;;7.90;99.90;;;;;;4921293;28;20059;-88
2022/12/25 20:10:04;;;;;;;;;;;;;;;;;;;;;
2022/12/25 20:12:46;;;;;;;8.40;5.47;;;7.80;99.90;;;;;;4900756;29;20545;-90
2022/12/25 20:15:23;;;;;;;8.02;4.70;;;7.80;99.90;;;;;;4902872;29;20104;-87
2022/12/25 20:18:07;;;;;;;;;;;;;;;;;;;;;
2022/12/25 20:21:46;;;;;;;9.82;6.07;;;7.90;99.90;;;;;;4870121;29;20584;-88
2022/12/25 20:25:00;;;;;;;;;;;;;;;;;;;;;
2022/12/25 20:28:36;;;;;;;;;;;;;;;;;;;;;
2022/12/25 20:31:55;;;;;;;11.10;5.95;;;7.90;99.90;;;;;;4826802;29;20090;-92
2022/12/25 20:37:54;;;;;;;;;;;;;;;;;;;;;
2022/12/25 20:41:09;;;;;;;10.27;6.00;;;8.60;99.90;;;;;;5051850;22;20110;-88
2022/12/25 20:48:13;;;;;;;8.18;4.65;;;7.80;99.90;;;;;;4996405;28;20049;-89
2022/12/25 20:54:22;;;;;;;8.88;4.57;;;8.00;99.90;;;;;;5059338;28;20314;-91
2022/12/25 20:57:54;;;;;;;9.18;4.43;;;8.00;99.90;;;;;;5076426;28;20044;-89
2022/12/25 21:05:32;;;;;;;;;;;;;;;;;;;;;
2022/12/25 21:09:27;;;;;;;9.23;5.10;;;8.10;99.90;;;;;;4923226;29;20083;-91
2022/12/25 21:13:03;;;;;;;;;;;;;;;;;;;;;
2022/12/25 21:16:05;;;;;;;8.77;4.72;;;8.10;99.90;;;;;;4882330;29;20612;-88
2022/12/25 21:59:22;;;;;;;8.80;4.13;;;8.20;99.90;;;;;;4738944;24;20056;-89
2022/12/25 23:06:24;;;;;;;13.23;5.75;;;8.20;99.90;;;;;;4733904;30;20056;-91
2022/12/25 23:09:01;;;;;;;14.85;6.82;;;8.20;99.90;;;;;;4721944;30;20067;-90
2022/12/25 23:12:05;;;;;;;13.27;6.25;;;8.20;99.90;;;;;;4724614;30;20052;-94
2022/12/25 23:15:01;;;;;;;18.05;6.82;;;7.90;99.90;;;;;;4822454;24;20068;-93
2022/12/25 23:34:00;;;;;;;;;;;;;;;;;;;;;
